sensor_id;sensor_type;location;lat;lon;timestamp;P1;durP1;ratioP1;P2;durP2;ratioP2
50393;SDS011;36308;46.312;25.288;2024-03-08T00:00:03;33.03;;;15.82;;
50393;SDS011;36308;46.312;25.288;2024-03-08T00:02:38;34.22;;;15.75;;
50393;SDS011;36308;46.312;25.288;2024-03-08T00:05:04;35.65;;;16.05;;
50393;SDS011;36308;46.312;25.288;2024-03-08T00:07:31;33.55;;;15.95;;
50393;SDS011;36308;46.312;25.288;2024-03-08T00:09:56;31.15;;;15.25;;
50393;SDS011;36308;46.312;25.288;2024-03-08T00:12:22;32.28;;;15.38;;
50393;SDS011;36308;46.312;25.288;2024-03-08T00:14:47;33.05;;;15.75;;
50393;SDS011;36308;46.312;25.288;2024-03-08T00:17:13;32.72;;;15.85;;
50393;SDS011;36308;46.312;25.288;2024-03-08T00:19:40;28.33;;;14.57;;
50393;SDS011;36308;46.312;25.288;2024-03-08T00:22:06;32.80;;;15.68;;
50393;SDS011;36308;46.312;25.288;2024-03-08T00:24:33;32.53;;;15.13;;
50393;SDS011;36308;46.312;25.288;2024-03-08T00:26:58;31.48;;;15.20;;
50393;SDS011;36308;46.312;25.288;2024-03-08T00:29:24;35.38;;;16.35;;
50393;SDS011;36308;46.312;25.288;2024-03-08T00:31:49;32.17;;;15.82;;
50393;SDS011;36308;46.312;25.288;2024-03-08T00:34:15;31.33;;;15.70;;
50393;SDS011;36308;46.312;25.288;2024-03-08T00:36:41;32.03;;;16.00;;
50393;SDS011;36308;46.312;25.288;2024-03-08T00:39:06;28.95;;;15.57;;
50393;SDS011;36308;46.312;25.288;2024-03-08T00:41:32;28.73;;;14.68;;
50393;SDS011;36308;46.312;25.288;2024-03-08T00:43:58;33.22;;;16.20;;
50393;SDS011;36308;46.312;25.288;2024-03-08T00:46:23;27.60;;;14.02;;
50393;SDS011;36308;46.312;25.288;2024-03-08T00:48:49;30.52;;;16.17;;
50393;SDS011;36308;46.312;25.288;2024-03-08T00:51:15;30.20;;;15.68;;
50393;SDS011;36308;46.312;25.288;2024-03-08T00:53:41;29.25;;;15.77;;
50393;SDS011;36308;46.312;25.288;2024-03-08T00:56:09;29.40;;;14.90;;
50393;SDS011;36308;46.312;25.288;2024-03-08T00:58:38;28.88;;;15.13;;
50393;SDS011;36308;46.312;25.288;2024-03-08T01:01:03;27.77;;;14.30;;
50393;SDS011;36308;46.312;25.288;2024-03-08T01:03:30;29.25;;;15.50;;
50393;SDS011;36308;46.312;25.288;2024-03-08T01:05:59;29.83;;;14.30;;
50393;SDS011;36308;46.312;25.288;2024-03-08T01:08:26;27.50;;;14.05;;
50393;SDS011;36308;46.312;25.288;2024-03-08T01:10:52;27.13;;;14.15;;
50393;SDS011;36308;46.312;25.288;2024-03-08T01:13:18;28.67;;;14.70;;
50393;SDS011;36308;46.312;25.288;2024-03-08T01:15:44;27.48;;;14.35;;
50393;SDS011;36308;46.312;25.288;2024-03-08T01:18:10;26.23;;;14.70;;
50393;SDS011;36308;46.312;25.288;2024-03-08T01:20:35;26.02;;;14.73;;
50393;SDS011;36308;46.312;25.288;2024-03-08T01:23:01;28.67;;;15.77;;
50393;SDS011;36308;46.312;25.288;2024-03-08T01:25:26;30.95;;;16.02;;
50393;SDS011;36308;46.312;25.288;2024-03-08T01:27:52;30.83;;;15.95;;
50393;SDS011;36308;46.312;25.288;2024-03-08T01:30:18;34.03;;;15.32;;
50393;SDS011;36308;46.312;25.288;2024-03-08T01:32:44;35.30;;;17.20;;
50393;SDS011;36308;46.312;25.288;2024-03-08T01:35:10;39.45;;;18.33;;
50393;SDS011;36308;46.312;25.288;2024-03-08T01:37:35;34.50;;;18.65;;
50393;SDS011;36308;46.312;25.288;2024-03-08T01:40:01;33.92;;;17.55;;
50393;SDS011;36308;46.312;25.288;2024-03-08T01:42:28;33.28;;;17.60;;
50393;SDS011;36308;46.312;25.288;2024-03-08T01:44:53;34.15;;;17.13;;
50393;SDS011;36308;46.312;25.288;2024-03-08T01:47:19;31.45;;;16.23;;
50393;SDS011;36308;46.312;25.288;2024-03-08T01:49:48;27.95;;;14.77;;
50393;SDS011;36308;46.312;25.288;2024-03-08T01:52:15;27.88;;;14.60;;
50393;SDS011;36308;46.312;25.288;2024-03-08T01:54:41;29.58;;;14.75;;
50393;SDS011;36308;46.312;25.288;2024-03-08T01:57:07;27.25;;;14.30;;
50393;SDS011;36308;46.312;25.288;2024-03-08T01:59:33;28.20;;;13.23;;
50393;SDS011;36308;46.312;25.288;2024-03-08T02:02:00;26.13;;;13.80;;
50393;SDS011;36308;46.312;25.288;2024-03-08T02:04:28;29.33;;;14.07;;
50393;SDS011;36308;46.312;25.288;2024-03-08T02:06:55;27.88;;;14.40;;
50393;SDS011;36308;46.312;25.288;2024-03-08T02:09:23;27.70;;;13.13;;
50393;SDS011;36308;46.312;25.288;2024-03-08T02:11:50;27.83;;;14.05;;
50393;SDS011;36308;46.312;25.288;2024-03-08T02:14:16;27.45;;;13.55;;
50393;SDS011;36308;46.312;25.288;2024-03-08T02:16:43;30.15;;;14.00;;
50393;SDS011;36308;46.312;25.288;2024-03-08T02:19:09;29.63;;;15.13;;
50393;SDS011;36308;46.312;25.288;2024-03-08T02:21:35;30.55;;;17.13;;
50393;SDS011;36308;46.312;25.288;2024-03-08T02:24:01;31.02;;;17.13;;
50393;SDS011;36308;46.312;25.288;2024-03-08T02:26:27;26.25;;;15.10;;
50393;SDS011;36308;46.312;25.288;2024-03-08T02:28:53;25.75;;;13.38;;
50393;SDS011;36308;46.312;25.288;2024-03-08T02:31:19;27.00;;;13.75;;
50393;SDS011;36308;46.312;25.288;2024-03-08T02:33:44;23.73;;;13.13;;
50393;SDS011;36308;46.312;25.288;2024-03-08T02:36:12;27.17;;;13.15;;
50393;SDS011;36308;46.312;25.288;2024-03-08T02:38:38;24.92;;;12.95;;
50393;SDS011;36308;46.312;25.288;2024-03-08T02:41:05;25.05;;;13.40;;
50393;SDS011;36308;46.312;25.288;2024-03-08T02:43:31;30.55;;;14.82;;
50393;SDS011;36308;46.312;25.288;2024-03-08T02:45:57;29.67;;;15.20;;
50393;SDS011;36308;46.312;25.288;2024-03-08T02:48:22;26.75;;;15.23;;
50393;SDS011;36308;46.312;25.288;2024-03-08T02:50:48;22.92;;;13.32;;
50393;SDS011;36308;46.312;25.288;2024-03-08T02:53:14;29.67;;;14.23;;
50393;SDS011;36308;46.312;25.288;2024-03-08T02:55:39;28.63;;;13.43;;
50393;SDS011;36308;46.312;25.288;2024-03-08T02:58:06;26.13;;;13.60;;
50393;SDS011;36308;46.312;25.288;2024-03-08T03:00:35;24.70;;;13.52;;
50393;SDS011;36308;46.312;25.288;2024-03-08T03:03:01;32.78;;;16.48;;
50393;SDS011;36308;46.312;25.288;2024-03-08T03:05:28;42.22;;;19.90;;
50393;SDS011;36308;46.312;25.288;2024-03-08T03:07:57;35.65;;;18.35;;
50393;SDS011;36308;46.312;25.288;2024-03-08T03:10:25;29.75;;;14.32;;
50393;SDS011;36308;46.312;25.288;2024-03-08T03:12:51;27.00;;;13.80;;
50393;SDS011;36308;46.312;25.288;2024-03-08T03:15:17;27.40;;;14.77;;
50393;SDS011;36308;46.312;25.288;2024-03-08T03:17:49;32.47;;;14.70;;
50393;SDS011;36308;46.312;25.288;2024-03-08T03:20:18;34.40;;;18.35;;
50393;SDS011;36308;46.312;25.288;2024-03-08T03:22:57;28.33;;;15.07;;
50393;SDS011;36308;46.312;25.288;2024-03-08T03:25:26;32.50;;;16.38;;
50393;SDS011;36308;46.312;25.288;2024-03-08T03:27:54;28.65;;;15.27;;
50393;SDS011;36308;46.312;25.288;2024-03-08T03:30:23;35.55;;;21.38;;
50393;SDS011;36308;46.312;25.288;2024-03-08T03:32:51;33.95;;;18.65;;
50393;SDS011;36308;46.312;25.288;2024-03-08T03:35:17;29.25;;;15.45;;
50393;SDS011;36308;46.312;25.288;2024-03-08T03:37:45;27.65;;;13.93;;
50393;SDS011;36308;46.312;25.288;2024-03-08T03:40:26;27.05;;;14.63;;
50393;SDS011;36308;46.312;25.288;2024-03-08T03:42:52;30.95;;;14.05;;
50393;SDS011;36308;46.312;25.288;2024-03-08T03:45:18;33.20;;;16.35;;
50393;SDS011;36308;46.312;25.288;2024-03-08T03:47:45;29.63;;;15.18;;
50393;SDS011;36308;46.312;25.288;2024-03-08T03:50:11;31.65;;;18.40;;
50393;SDS011;36308;46.312;25.288;2024-03-08T03:52:36;34.22;;;19.38;;
50393;SDS011;36308;46.312;25.288;2024-03-08T03:55:02;31.30;;;15.45;;
50393;SDS011;36308;46.312;25.288;2024-03-08T03:57:29;30.52;;;16.23;;
50393;SDS011;36308;46.312;25.288;2024-03-08T03:59:55;30.17;;;15.50;;
50393;SDS011;36308;46.312;25.288;2024-03-08T04:02:22;27.58;;;13.57;;
50393;SDS011;36308;46.312;25.288;2024-03-08T04:04:47;27.70;;;14.52;;
50393;SDS011;36308;46.312;25.288;2024-03-08T04:07:14;26.08;;;14.15;;
50393;SDS011;36308;46.312;25.288;2024-03-08T04:09:39;29.15;;;15.00;;
50393;SDS011;36308;46.312;25.288;2024-03-08T04:12:05;29.50;;;15.00;;
50393;SDS011;36308;46.312;25.288;2024-03-08T04:14:30;28.63;;;14.32;;
50393;SDS011;36308;46.312;25.288;2024-03-08T04:16:56;38.70;;;21.30;;
50393;SDS011;36308;46.312;25.288;2024-03-08T04:19:21;43.13;;;24.60;;
50393;SDS011;36308;46.312;25.288;2024-03-08T04:21:47;44.90;;;25.70;;
50393;SDS011;36308;46.312;25.288;2024-03-08T04:24:13;67.55;;;33.10;;
50393;SDS011;36308;46.312;25.288;2024-03-08T04:26:38;106.28;;;47.35;;
50393;SDS011;36308;46.312;25.288;2024-03-08T04:29:04;76.75;;;34.53;;
50393;SDS011;36308;46.312;25.288;2024-03-08T04:31:29;57.08;;;27.05;;
50393;SDS011;36308;46.312;25.288;2024-03-08T04:33:56;50.63;;;24.85;;
50393;SDS011;36308;46.312;25.288;2024-03-08T04:36:22;46.17;;;22.48;;
50393;SDS011;36308;46.312;25.288;2024-03-08T04:38:48;72.88;;;33.03;;
50393;SDS011;36308;46.312;25.288;2024-03-08T04:41:13;76.80;;;36.05;;
50393;SDS011;36308;46.312;25.288;2024-03-08T04:43:39;64.47;;;32.25;;
50393;SDS011;36308;46.312;25.288;2024-03-08T04:46:05;69.57;;;33.55;;
50393;SDS011;36308;46.312;25.288;2024-03-08T04:48:30;80.68;;;39.28;;
50393;SDS011;36308;46.312;25.288;2024-03-08T04:50:56;93.50;;;50.30;;
50393;SDS011;36308;46.312;25.288;2024-03-08T04:59:29;68.93;;;39.65;;
50393;SDS011;36308;46.312;25.288;2024-03-08T05:01:56;60.45;;;35.17;;
50393;SDS011;36308;46.312;25.288;2024-03-08T05:04:21;67.28;;;43.78;;
50393;SDS011;36308;46.312;25.288;2024-03-08T05:10:08;63.40;;;35.38;;
50393;SDS011;36308;46.312;25.288;2024-03-08T05:12:34;42.17;;;22.40;;
50393;SDS011;36308;46.312;25.288;2024-03-08T05:14:59;39.83;;;21.73;;
50393;SDS011;36308;46.312;25.288;2024-03-08T05:17:25;41.95;;;23.25;;
50393;SDS011;36308;46.312;25.288;2024-03-08T05:19:51;37.70;;;21.33;;
50393;SDS011;36308;46.312;25.288;2024-03-08T05:22:16;43.03;;;21.23;;
50393;SDS011;36308;46.312;25.288;2024-03-08T05:24:42;43.88;;;23.05;;
50393;SDS011;36308;46.312;25.288;2024-03-08T05:27:08;54.08;;;23.80;;
50393;SDS011;36308;46.312;25.288;2024-03-08T05:29:34;45.38;;;22.05;;
50393;SDS011;36308;46.312;25.288;2024-03-08T05:31:59;49.78;;;25.35;;
50393;SDS011;36308;46.312;25.288;2024-03-08T05:34:25;47.83;;;24.20;;
50393;SDS011;36308;46.312;25.288;2024-03-08T05:36:51;45.08;;;21.60;;
50393;SDS011;36308;46.312;25.288;2024-03-08T05:39:17;44.15;;;21.95;;
50393;SDS011;36308;46.312;25.288;2024-03-08T05:41:43;55.35;;;30.08;;
50393;SDS011;36308;46.312;25.288;2024-03-08T05:44:09;64.20;;;31.00;;
50393;SDS011;36308;46.312;25.288;2024-03-08T05:46:36;50.17;;;27.60;;
50393;SDS011;36308;46.312;25.288;2024-03-08T05:49:05;57.15;;;32.72;;
50393;SDS011;36308;46.312;25.288;2024-03-08T05:51:34;60.38;;;34.72;;
50393;SDS011;36308;46.312;25.288;2024-03-08T05:54:03;77.68;;;41.85;;
50393;SDS011;36308;46.312;25.288;2024-03-08T05:56:35;52.17;;;27.27;;
50393;SDS011;36308;46.312;25.288;2024-03-08T05:59:01;64.38;;;36.63;;
50393;SDS011;36308;46.312;25.288;2024-03-08T06:01:26;71.13;;;40.22;;
50393;SDS011;36308;46.312;25.288;2024-03-08T06:03:55;60.78;;;32.42;;
50393;SDS011;36308;46.312;25.288;2024-03-08T06:06:24;68.28;;;37.10;;
50393;SDS011;36308;46.312;25.288;2024-03-08T06:08:50;52.92;;;30.70;;
50393;SDS011;36308;46.312;25.288;2024-03-08T06:11:16;56.13;;;30.60;;
50393;SDS011;36308;46.312;25.288;2024-03-08T06:13:43;64.68;;;35.20;;
50393;SDS011;36308;46.312;25.288;2024-03-08T06:16:09;45.10;;;26.48;;
50393;SDS011;36308;46.312;25.288;2024-03-08T06:18:35;48.70;;;26.98;;
50393;SDS011;36308;46.312;25.288;2024-03-08T06:21:07;37.90;;;20.77;;
50393;SDS011;36308;46.312;25.288;2024-03-08T06:23:37;46.95;;;26.70;;
50393;SDS011;36308;46.312;25.288;2024-03-08T06:26:06;63.05;;;35.83;;
50393;SDS011;36308;46.312;25.288;2024-03-08T06:28:34;45.88;;;21.55;;
50393;SDS011;36308;46.312;25.288;2024-03-08T06:31:00;39.90;;;20.15;;
50393;SDS011;36308;46.312;25.288;2024-03-08T06:33:26;47.95;;;24.48;;
50393;SDS011;36308;46.312;25.288;2024-03-08T06:35:53;49.05;;;23.60;;
50393;SDS011;36308;46.312;25.288;2024-03-08T06:38:22;36.95;;;19.02;;
50393;SDS011;36308;46.312;25.288;2024-03-08T06:40:50;35.83;;;20.23;;
50393;SDS011;36308;46.312;25.288;2024-03-08T06:43:17;44.47;;;21.83;;
50393;SDS011;36308;46.312;25.288;2024-03-08T06:45:43;39.10;;;21.10;;
50393;SDS011;36308;46.312;25.288;2024-03-08T06:48:15;56.13;;;27.42;;
50393;SDS011;36308;46.312;25.288;2024-03-08T06:50:42;35.30;;;17.27;;
50393;SDS011;36308;46.312;25.288;2024-03-08T06:53:08;32.70;;;17.25;;
50393;SDS011;36308;46.312;25.288;2024-03-08T06:55:33;41.00;;;16.98;;
50393;SDS011;36308;46.312;25.288;2024-03-08T06:58:00;32.40;;;15.95;;
50393;SDS011;36308;46.312;25.288;2024-03-08T07:00:26;32.50;;;16.25;;
50393;SDS011;36308;46.312;25.288;2024-03-08T07:02:54;81.03;;;46.00;;
50393;SDS011;36308;46.312;25.288;2024-03-08T07:05:19;35.30;;;18.67;;
50393;SDS011;36308;46.312;25.288;2024-03-08T07:07:45;36.97;;;17.38;;
50393;SDS011;36308;46.312;25.288;2024-03-08T07:10:13;30.52;;;15.55;;
50393;SDS011;36308;46.312;25.288;2024-03-08T07:12:40;32.78;;;16.40;;
50393;SDS011;36308;46.312;25.288;2024-03-08T07:15:07;31.80;;;15.70;;
50393;SDS011;36308;46.312;25.288;2024-03-08T07:17:33;34.70;;;16.88;;
50393;SDS011;36308;46.312;25.288;2024-03-08T07:20:00;103.45;;;44.00;;
50393;SDS011;36308;46.312;25.288;2024-03-08T07:22:31;44.28;;;20.55;;
50393;SDS011;36308;46.312;25.288;2024-03-08T07:24:56;41.15;;;21.20;;
50393;SDS011;36308;46.312;25.288;2024-03-08T07:27:40;61.97;;;26.30;;
50393;SDS011;36308;46.312;25.288;2024-03-08T07:30:06;36.20;;;17.83;;
50393;SDS011;36308;46.312;25.288;2024-03-08T07:32:35;29.70;;;16.73;;
50393;SDS011;36308;46.312;25.288;2024-03-08T07:35:00;35.03;;;17.67;;
50393;SDS011;36308;46.312;25.288;2024-03-08T07:37:27;34.10;;;17.85;;
50393;SDS011;36308;46.312;25.288;2024-03-08T07:39:52;36.47;;;17.98;;
50393;SDS011;36308;46.312;25.288;2024-03-08T07:42:18;41.03;;;19.83;;
50393;SDS011;36308;46.312;25.288;2024-03-08T07:44:43;41.92;;;20.15;;
50393;SDS011;36308;46.312;25.288;2024-03-08T07:47:11;34.90;;;19.17;;
50393;SDS011;36308;46.312;25.288;2024-03-08T07:49:37;40.33;;;24.52;;
50393;SDS011;36308;46.312;25.288;2024-03-08T07:52:03;42.55;;;21.77;;
50393;SDS011;36308;46.312;25.288;2024-03-08T07:54:32;35.92;;;18.80;;
50393;SDS011;36308;46.312;25.288;2024-03-08T07:56:59;29.83;;;15.98;;
50393;SDS011;36308;46.312;25.288;2024-03-08T07:59:24;34.30;;;17.85;;
50393;SDS011;36308;46.312;25.288;2024-03-08T08:01:50;37.08;;;18.23;;
50393;SDS011;36308;46.312;25.288;2024-03-08T08:04:15;32.30;;;17.27;;
50393;SDS011;36308;46.312;25.288;2024-03-08T08:06:43;35.60;;;19.23;;
50393;SDS011;36308;46.312;25.288;2024-03-08T08:09:08;32.85;;;19.27;;
50393;SDS011;36308;46.312;25.288;2024-03-08T08:11:40;28.27;;;15.82;;
50393;SDS011;36308;46.312;25.288;2024-03-08T08:14:08;28.33;;;15.45;;
50393;SDS011;36308;46.312;25.288;2024-03-08T08:16:35;28.67;;;14.88;;
50393;SDS011;36308;46.312;25.288;2024-03-08T08:22:23;33.67;;;17.02;;
50393;SDS011;36308;46.312;25.288;2024-03-08T08:24:49;29.80;;;15.13;;
50393;SDS011;36308;46.312;25.288;2024-03-08T08:27:14;28.42;;;14.00;;
50393;SDS011;36308;46.312;25.288;2024-03-08T08:29:39;28.95;;;14.30;;
50393;SDS011;36308;46.312;25.288;2024-03-08T08:32:05;26.48;;;14.63;;
50393;SDS011;36308;46.312;25.288;2024-03-08T08:34:31;27.92;;;14.98;;
50393;SDS011;36308;46.312;25.288;2024-03-08T08:36:56;33.15;;;14.73;;
50393;SDS011;36308;46.312;25.288;2024-03-08T08:39:22;27.95;;;13.60;;
50393;SDS011;36308;46.312;25.288;2024-03-08T08:41:48;28.85;;;16.17;;
50393;SDS011;36308;46.312;25.288;2024-03-08T08:44:13;26.80;;;15.85;;
50393;SDS011;36308;46.312;25.288;2024-03-08T08:46:40;31.10;;;14.73;;
50393;SDS011;36308;46.312;25.288;2024-03-08T08:49:05;25.05;;;13.40;;
50393;SDS011;36308;46.312;25.288;2024-03-08T08:51:36;23.33;;;12.57;;
50393;SDS011;36308;46.312;25.288;2024-03-08T08:54:02;23.27;;;13.10;;
50393;SDS011;36308;46.312;25.288;2024-03-08T08:56:27;22.08;;;12.77;;
50393;SDS011;36308;46.312;25.288;2024-03-08T08:58:53;23.38;;;13.10;;
50393;SDS011;36308;46.312;25.288;2024-03-08T09:01:19;20.75;;;12.52;;
50393;SDS011;36308;46.312;25.288;2024-03-08T09:03:45;21.85;;;11.85;;
50393;SDS011;36308;46.312;25.288;2024-03-08T09:06:15;25.13;;;13.38;;
50393;SDS011;36308;46.312;25.288;2024-03-08T09:08:41;26.25;;;13.80;;
50393;SDS011;36308;46.312;25.288;2024-03-08T09:11:07;26.13;;;12.80;;
50393;SDS011;36308;46.312;25.288;2024-03-08T09:13:33;24.85;;;12.50;;
50393;SDS011;36308;46.312;25.288;2024-03-08T09:16:04;23.58;;;12.70;;
50393;SDS011;36308;46.312;25.288;2024-03-08T09:18:31;22.02;;;12.20;;
50393;SDS011;36308;46.312;25.288;2024-03-08T09:21:00;28.17;;;12.50;;
50393;SDS011;36308;46.312;25.288;2024-03-08T09:23:25;22.60;;;12.27;;
50393;SDS011;36308;46.312;25.288;2024-03-08T09:25:55;22.02;;;12.48;;
50393;SDS011;36308;46.312;25.288;2024-03-08T09:28:22;21.63;;;12.45;;
50393;SDS011;36308;46.312;25.288;2024-03-08T09:30:48;22.65;;;13.38;;
50393;SDS011;36308;46.312;25.288;2024-03-08T09:33:14;23.83;;;12.77;;
50393;SDS011;36308;46.312;25.288;2024-03-08T09:35:44;32.67;;;18.88;;
50393;SDS011;36308;46.312;25.288;2024-03-08T09:38:12;27.88;;;12.70;;
50393;SDS011;36308;46.312;25.288;2024-03-08T09:40:38;24.95;;;13.85;;
50393;SDS011;36308;46.312;25.288;2024-03-08T09:43:06;23.55;;;13.32;;
50393;SDS011;36308;46.312;25.288;2024-03-08T09:45:31;23.83;;;11.80;;
50393;SDS011;36308;46.312;25.288;2024-03-08T09:48:01;21.42;;;10.68;;
50393;SDS011;36308;46.312;25.288;2024-03-08T09:50:26;22.20;;;11.05;;
50393;SDS011;36308;46.312;25.288;2024-03-08T09:52:54;25.17;;;12.68;;
50393;SDS011;36308;46.312;25.288;2024-03-08T09:55:22;25.63;;;13.63;;
50393;SDS011;36308;46.312;25.288;2024-03-08T09:57:47;20.42;;;11.20;;
50393;SDS011;36308;46.312;25.288;2024-03-08T10:00:34;22.40;;;11.98;;
50393;SDS011;36308;46.312;25.288;2024-03-08T10:03:02;20.25;;;11.45;;
50393;SDS011;36308;46.312;25.288;2024-03-08T10:05:28;21.40;;;11.55;;
50393;SDS011;36308;46.312;25.288;2024-03-08T10:07:58;20.35;;;11.30;;
50393;SDS011;36308;46.312;25.288;2024-03-08T10:10:23;21.30;;;10.98;;
50393;SDS011;36308;46.312;25.288;2024-03-08T10:12:49;24.17;;;12.55;;
50393;SDS011;36308;46.312;25.288;2024-03-08T10:15:15;20.80;;;11.70;;
50393;SDS011;36308;46.312;25.288;2024-03-08T10:17:41;19.60;;;11.82;;
50393;SDS011;36308;46.312;25.288;2024-03-08T10:20:14;30.73;;;15.88;;
50393;SDS011;36308;46.312;25.288;2024-03-08T10:22:43;21.55;;;11.45;;
50393;SDS011;36308;46.312;25.288;2024-03-08T10:25:12;20.85;;;11.18;;
50393;SDS011;36308;46.312;25.288;2024-03-08T10:27:38;23.45;;;11.25;;
50393;SDS011;36308;46.312;25.288;2024-03-08T10:30:12;22.67;;;11.02;;
50393;SDS011;36308;46.312;25.288;2024-03-08T10:32:40;20.27;;;11.00;;
50393;SDS011;36308;46.312;25.288;2024-03-08T10:35:07;19.48;;;10.13;;
50393;SDS011;36308;46.312;25.288;2024-03-08T10:37:43;24.40;;;11.40;;
50393;SDS011;36308;46.312;25.288;2024-03-08T10:42:47;20.45;;;11.48;;
50393;SDS011;36308;46.312;25.288;2024-03-08T10:45:30;19.15;;;10.43;;
50393;SDS011;36308;46.312;25.288;2024-03-08T10:50:57;33.38;;;18.20;;
50393;SDS011;36308;46.312;25.288;2024-03-08T10:53:26;31.88;;;17.67;;
50393;SDS011;36308;46.312;25.288;2024-03-08T10:55:53;18.50;;;10.98;;
50393;SDS011;36308;46.312;25.288;2024-03-08T10:58:19;18.05;;;10.80;;
50393;SDS011;36308;46.312;25.288;2024-03-08T11:00:47;21.90;;;11.20;;
50393;SDS011;36308;46.312;25.288;2024-03-08T11:09:03;19.92;;;11.18;;
50393;SDS011;36308;46.312;25.288;2024-03-08T11:11:38;20.52;;;10.70;;
50393;SDS011;36308;46.312;25.288;2024-03-08T11:14:08;19.02;;;9.38;;
50393;SDS011;36308;46.312;25.288;2024-03-08T11:17:09;17.50;;;9.98;;
50393;SDS011;36308;46.312;25.288;2024-03-08T11:19:34;23.40;;;9.80;;
50393;SDS011;36308;46.312;25.288;2024-03-08T11:22:00;17.33;;;10.38;;
50393;SDS011;36308;46.312;25.288;2024-03-08T11:24:28;17.80;;;10.23;;
50393;SDS011;36308;46.312;25.288;2024-03-08T11:27:03;17.08;;;10.13;;
50393;SDS011;36308;46.312;25.288;2024-03-08T11:34:36;19.40;;;10.80;;
50393;SDS011;36308;46.312;25.288;2024-03-08T11:37:05;20.42;;;10.25;;
50393;SDS011;36308;46.312;25.288;2024-03-08T11:39:38;48.63;;;26.73;;
50393;SDS011;36308;46.312;25.288;2024-03-08T11:42:05;20.50;;;12.70;;
50393;SDS011;36308;46.312;25.288;2024-03-08T11:44:31;24.75;;;13.38;;
50393;SDS011;36308;46.312;25.288;2024-03-08T11:47:00;17.00;;;10.00;;
50393;SDS011;36308;46.312;25.288;2024-03-08T11:49:27;18.25;;;9.80;;
50393;SDS011;36308;46.312;25.288;2024-03-08T11:51:53;16.33;;;9.85;;
50393;SDS011;36308;46.312;25.288;2024-03-08T11:54:19;21.17;;;12.32;;
50393;SDS011;36308;46.312;25.288;2024-03-08T11:56:45;20.20;;;11.20;;
50393;SDS011;36308;46.312;25.288;2024-03-08T11:59:13;19.27;;;10.80;;
50393;SDS011;36308;46.312;25.288;2024-03-08T12:01:41;21.95;;;11.57;;
50393;SDS011;36308;46.312;25.288;2024-03-08T12:04:06;17.92;;;10.23;;
50393;SDS011;36308;46.312;25.288;2024-03-08T12:06:38;17.52;;;10.05;;
50393;SDS011;36308;46.312;25.288;2024-03-08T12:09:09;15.93;;;9.60;;
50393;SDS011;36308;46.312;25.288;2024-03-08T12:14:46;19.40;;;10.95;;
50393;SDS011;36308;46.312;25.288;2024-03-08T12:17:12;18.92;;;10.50;;
50393;SDS011;36308;46.312;25.288;2024-03-08T12:19:39;16.80;;;10.32;;
50393;SDS011;36308;46.312;25.288;2024-03-08T12:28:47;15.35;;;9.27;;
50393;SDS011;36308;46.312;25.288;2024-03-08T12:31:13;19.35;;;10.18;;
50393;SDS011;36308;46.312;25.288;2024-03-08T12:33:48;20.83;;;10.40;;
50393;SDS011;36308;46.312;25.288;2024-03-08T12:36:15;16.52;;;10.65;;
50393;SDS011;36308;46.312;25.288;2024-03-08T12:38:44;17.15;;;10.00;;
50393;SDS011;36308;46.312;25.288;2024-03-08T12:41:14;19.83;;;13.45;;
50393;SDS011;36308;46.312;25.288;2024-03-08T12:43:40;16.65;;;9.35;;
50393;SDS011;36308;46.312;25.288;2024-03-08T12:46:05;21.48;;;9.95;;
50393;SDS011;36308;46.312;25.288;2024-03-08T12:51:16;18.85;;;10.27;;
50393;SDS011;36308;46.312;25.288;2024-03-08T12:53:43;15.48;;;9.40;;
50393;SDS011;36308;46.312;25.288;2024-03-08T12:56:10;21.70;;;10.43;;
50393;SDS011;36308;46.312;25.288;2024-03-08T12:58:36;17.92;;;9.98;;
50393;SDS011;36308;46.312;25.288;2024-03-08T13:01:03;13.75;;;8.63;;
50393;SDS011;36308;46.312;25.288;2024-03-08T13:03:35;18.17;;;9.05;;
50393;SDS011;36308;46.312;25.288;2024-03-08T13:06:04;16.90;;;9.25;;
50393;SDS011;36308;46.312;25.288;2024-03-08T13:08:34;14.45;;;9.43;;
50393;SDS011;36308;46.312;25.288;2024-03-08T13:11:01;15.68;;;9.95;;
50393;SDS011;36308;46.312;25.288;2024-03-08T13:13:28;15.98;;;9.55;;
50393;SDS011;36308;46.312;25.288;2024-03-08T13:15:53;18.55;;;8.90;;
50393;SDS011;36308;46.312;25.288;2024-03-08T13:18:21;22.15;;;9.90;;
50393;SDS011;36308;46.312;25.288;2024-03-08T13:20:47;16.75;;;10.23;;
50393;SDS011;36308;46.312;25.288;2024-03-08T13:23:16;18.55;;;10.77;;
50393;SDS011;36308;46.312;25.288;2024-03-08T13:25:42;17.50;;;9.85;;
50393;SDS011;36308;46.312;25.288;2024-03-08T13:28:08;20.17;;;11.05;;
50393;SDS011;36308;46.312;25.288;2024-03-08T13:30:34;17.25;;;9.65;;
50393;SDS011;36308;46.312;25.288;2024-03-08T13:33:00;14.57;;;8.75;;
50393;SDS011;36308;46.312;25.288;2024-03-08T13:35:26;16.65;;;8.52;;
50393;SDS011;36308;46.312;25.288;2024-03-08T13:37:53;14.65;;;8.93;;
50393;SDS011;36308;46.312;25.288;2024-03-08T13:40:18;15.52;;;9.27;;
50393;SDS011;36308;46.312;25.288;2024-03-08T13:42:48;14.43;;;8.77;;
50393;SDS011;36308;46.312;25.288;2024-03-08T13:45:14;15.05;;;9.15;;
50393;SDS011;36308;46.312;25.288;2024-03-08T13:47:46;13.73;;;8.40;;
50393;SDS011;36308;46.312;25.288;2024-03-08T13:50:12;16.08;;;8.52;;
50393;SDS011;36308;46.312;25.288;2024-03-08T13:52:38;13.55;;;8.35;;
50393;SDS011;36308;46.312;25.288;2024-03-08T13:55:04;14.50;;;8.68;;
50393;SDS011;36308;46.312;25.288;2024-03-08T13:57:31;18.10;;;9.52;;
50393;SDS011;36308;46.312;25.288;2024-03-08T13:59:57;16.27;;;8.55;;
50393;SDS011;36308;46.312;25.288;2024-03-08T14:02:23;14.57;;;8.68;;
50393;SDS011;36308;46.312;25.288;2024-03-08T14:04:53;19.45;;;9.93;;
50393;SDS011;36308;46.312;25.288;2024-03-08T14:07:22;14.20;;;8.60;;
50393;SDS011;36308;46.312;25.288;2024-03-08T14:09:48;15.80;;;8.38;;
50393;SDS011;36308;46.312;25.288;2024-03-08T14:12:14;15.23;;;8.52;;
50393;SDS011;36308;46.312;25.288;2024-03-08T14:14:40;17.52;;;9.32;;
50393;SDS011;36308;46.312;25.288;2024-03-08T14:17:07;14.10;;;8.90;;
50393;SDS011;36308;46.312;25.288;2024-03-08T14:19:35;14.48;;;9.70;;
50393;SDS011;36308;46.312;25.288;2024-03-08T14:22:01;17.75;;;10.98;;
50393;SDS011;36308;46.312;25.288;2024-03-08T14:24:29;19.27;;;9.32;;
50393;SDS011;36308;46.312;25.288;2024-03-08T14:26:55;20.70;;;9.70;;
50393;SDS011;36308;46.312;25.288;2024-03-08T14:29:21;42.33;;;13.75;;
50393;SDS011;36308;46.312;25.288;2024-03-08T14:31:47;19.13;;;10.98;;
50393;SDS011;36308;46.312;25.288;2024-03-08T14:34:13;19.52;;;9.88;;
50393;SDS011;36308;46.312;25.288;2024-03-08T14:36:39;13.85;;;9.00;;
50393;SDS011;36308;46.312;25.288;2024-03-08T14:39:05;21.98;;;11.25;;
50393;SDS011;36308;46.312;25.288;2024-03-08T14:41:32;23.65;;;12.20;;
50393;SDS011;36308;46.312;25.288;2024-03-08T14:43:58;18.77;;;11.82;;
50393;SDS011;36308;46.312;25.288;2024-03-08T14:46:24;27.27;;;13.52;;
50393;SDS011;36308;46.312;25.288;2024-03-08T14:48:50;23.70;;;15.25;;
50393;SDS011;36308;46.312;25.288;2024-03-08T14:51:18;28.90;;;18.88;;